Impacts METAR Board
IDs:

KPDX - Portland Intl Arpt, OR, US

Updated at: 1800 UTC 22 Sep 2018
Potential Impact None Slight Moderate High
Time 22/06Z 22/07Z 22/08Z 22/09Z 22/10Z 22/11Z 22/12Z 22/13Z 22/14Z 22/15Z 22/16Z 22/17Z 22/18Z
Temp67 65 64 61 61 61 61 61 62 60 61 63 66
Dewpt51 54 55 56 56 56 56 56 56 57 56 56 54
Altim29.92 29.93 29.94 29.95 29.95 29.95 29.95 29.95 29.96 29.97 29.99 29.99 30.00
VIS10 10 10 10 10 10 10 10 10 10 10 10 10
CIG65 39 30 44 49 -- -- -- 39 43 75 65 65
CoverOVCOVCOVCOVCOVCFEWSCTSCTBKNBKNBKNBKNBKN
FltCatVFRVFRMVFRVFRVFRVFRVFRVFRVFRVFRVFRVFRVFR
WX-RA-RA----------------------
WDir190190190170180200180180200180200200200
WSpd11 6 12 12 11 11 8 9 11 10 8 15 11
WGst-- -- -- -- -- -- -- -- -- -- -- -- 17
Raw hourly METARs
KPDX 220553Z 19011KT 10SM -RA OVC065 19/11 A2992 RMK AO2 SLP131 P0000 60000 T01940106 10239 20194 51007
KPDX 220653Z 19006KT 10SM -RA OVC039 18/12 A2993 RMK AO2 RAE0554B41 SLP135 P0000 T01830122
KPDX 220753Z 19012KT 10SM BKN030 BKN035 OVC043 18/13 A2994 RMK AO2 RAE04B31E43 SLP137 P0000 T01780128 402390100
KPDX 220853Z 17012KT 10SM OVC044 16/13 A2995 RMK AO2 SLP139 60000 T01610133 51008
KPDX 220953Z 18011KT 10SM OVC049 16/13 A2995 RMK AO2 SLP140 T01610133
KPDX 221053Z 20011KT 10SM FEW040 16/13 A2995 RMK AO2 SLP140 T01610133
KPDX 221153Z 18008KT 10SM FEW038 SCT050 16/13 A2995 RMK AO2 SLP141 60000 T01610133 10194 20161 52002
KPDX 221253Z 18009KT 10SM FEW035 SCT050 16/13 A2995 RMK AO2 SLP140 T01610133
KPDX 221353Z 20011KT 10SM FEW010 BKN039 BKN050 17/13 A2996 RMK AO2 SLP146 T01670133
KPDX 221453Z 18010KT 10SM FEW018 BKN043 BKN070 BKN250 16/14 A2997 RMK AO2 RAB07E30 SLP147 P0001 60001 T01560139 53006
KPDX 221553Z 20008KT 10SM FEW018 BKN075 BKN250 16/13 A2999 RMK AO2 SLP154 T01610133
KPDX 221653Z 20015KT 10SM FEW018 BKN065 BKN080 17/13 A2999 RMK AO2 SLP154 T01720133
KPDX 221753Z 20011G17KT 10SM FEW018 BKN065 BKN250 19/12 A3000 RMK AO2 SLP158 60001 T01890122 10189 20156 51010



Page loaded:  18:25 UTC  |   11:25 AM Pacific  |   12:25 PM Mountain  |   01:25 PM Central  |   02:25 PM Eastern

 

ADVISORIES

FORECASTS

FORECASTS

OBSERVATIONS

USER TOOLS

ABOUT US